CTV8500 OEMA-OEJN
Flight info
| Callsign | CTV8500 |
|---|---|
| Flight time | 0h 44m |
| Altitude | 30000 |
| Route | SISUD1J SISUD B544 RBG/N0446F290 B544 NOMDA NOMDA1B |
| Aircraft | A339/H-SADE1E2E3GHIJ3J5M1P2RWXY/LB2D1 |
Departure
| Time | 2026-04-29 04:37 |
|---|---|
| Airport | Prince Mohammad Bin Abdulaziz Airport (OEMA) |
Arrival
| Time | 2026-04-29 05:21 |
|---|---|
| Airport | King Abdulaziz International Airport (OEJN) |
| Time | Latitude | Longitude | Altitude | Speed | Heading |
|---|---|---|---|---|---|
| 2026-04-29 03:10 | 24.55543 | 39.71264 | 2111 ft | 0 kts | 79° |
| 2026-04-29 04:21 | 24.55543 | 39.71261 | 2111 ft | 2 kts | 79° |
| 2026-04-29 04:22 | 24.55538 | 39.71233 | 2112 ft | 4 kts | 83° |
| 2026-04-29 04:22 | 24.55535 | 39.71205 | 2113 ft | 4 kts | 65° |
| 2026-04-29 04:22 | 24.55525 | 39.71184 | 2113 ft | 4 kts | 39° |
| 2026-04-29 04:22 | 24.55510 | 39.71171 | 2114 ft | 4 kts | 351° |
| 2026-04-29 04:23 | 24.55484 | 39.71177 | 2113 ft | 3 kts | 348° |
| 2026-04-29 04:23 | 24.55477 | 39.71179 | 2114 ft | 0 kts | 349° |
| 2026-04-29 04:29 | 24.55481 | 39.71178 | 2114 ft | 2 kts | 349° |
| 2026-04-29 04:30 | 24.55520 | 39.71170 | 2112 ft | 9 kts | 349° |
| 2026-04-29 04:30 | 24.55598 | 39.71154 | 2111 ft | 14 kts | 349° |
| 2026-04-29 04:30 | 24.55854 | 39.71099 | 2111 ft | 23 kts | 349° |
| 2026-04-29 04:31 | 24.55989 | 39.71060 | 2111 ft | 17 kts | 325° |
| 2026-04-29 04:31 | 24.56002 | 39.70952 | 2112 ft | 16 kts | 262° |
| 2026-04-29 04:31 | 24.56032 | 39.70874 | 2113 ft | 11 kts | 330° |
| 2026-04-29 04:31 | 24.56122 | 39.70845 | 2113 ft | 16 kts | 348° |
| 2026-04-29 04:32 | 24.56246 | 39.70819 | 2114 ft | 20 kts | 349° |
| 2026-04-29 04:32 | 24.56398 | 39.70787 | 2114 ft | 24 kts | 350° |
| 2026-04-29 04:32 | 24.56578 | 39.70748 | 2113 ft | 28 kts | 348° |
| 2026-04-29 04:32 | 24.56781 | 39.70706 | 2113 ft | 31 kts | 350° |
| 2026-04-29 04:33 | 24.57008 | 39.70659 | 2112 ft | 35 kts | 349° |
| 2026-04-29 04:33 | 24.57252 | 39.70608 | 2112 ft | 37 kts | 349° |
| 2026-04-29 04:33 | 24.57513 | 39.70552 | 2113 ft | 39 kts | 349° |
| 2026-04-29 04:33 | 24.57630 | 39.70520 | 2113 ft | 4 kts | 334° |
| 2026-04-29 04:34 | 24.57644 | 39.70481 | 2114 ft | 7 kts | 276° |
| 2026-04-29 04:34 | 24.57644 | 39.70474 | 2114 ft | 0 kts | 272° |
| 2026-04-29 04:35 | 24.57644 | 39.70462 | 2114 ft | 3 kts | 269° |
| 2026-04-29 04:35 | 24.57640 | 39.70431 | 2116 ft | 5 kts | 263° |
| 2026-04-29 04:35 | 24.57635 | 39.70382 | 2117 ft | 8 kts | 261° |
| 2026-04-29 04:35 | 24.57587 | 39.70349 | 2117 ft | 11 kts | 183° |
| 2026-04-29 04:36 | 24.57494 | 39.70367 | 2116 ft | 16 kts | 170° |
| 2026-04-29 04:36 | 24.57216 | 39.70424 | 2116 ft | 84 kts | 169° |
| 2026-04-29 04:36 | 24.56364 | 39.70603 | 2125 ft | 163 kts | 167° |
| 2026-04-29 04:36 | 24.55118 | 39.70914 | 2603 ft | 186 kts | 167° |
| 2026-04-29 04:37 | 24.53846 | 39.71222 | 3621 ft | 182 kts | 170° |
| 2026-04-29 04:37 | 24.52584 | 39.71445 | 4507 ft | 190 kts | 172° |
| 2026-04-29 04:37 | 24.51209 | 39.71669 | 5048 ft | 210 kts | 172° |
| 2026-04-29 04:37 | 24.49694 | 39.71940 | 5551 ft | 231 kts | 171° |
| 2026-04-29 04:38 | 24.48044 | 39.72272 | 5976 ft | 251 kts | 170° |
| 2026-04-29 04:38 | 24.46266 | 39.72649 | 6303 ft | 270 kts | 169° |
| 2026-04-29 04:38 | 24.44390 | 39.73056 | 6978 ft | 276 kts | 169° |
| 2026-04-29 04:38 | 24.42495 | 39.73471 | 7781 ft | 279 kts | 169° |
| 2026-04-29 04:39 | 24.40580 | 39.73890 | 8561 ft | 282 kts | 169° |
| 2026-04-29 04:39 | 24.38638 | 39.74312 | 9345 ft | 286 kts | 169° |
| 2026-04-29 04:39 | 24.36698 | 39.74732 | 10106 ft | 289 kts | 169° |
| 2026-04-29 04:39 | 24.34679 | 39.75169 | 10532 ft | 306 kts | 169° |
| 2026-04-29 04:40 | 24.32508 | 39.75599 | 10733 ft | 328 kts | 174° |
| 2026-04-29 04:40 | 24.30200 | 39.75356 | 11142 ft | 340 kts | 197° |
| 2026-04-29 04:40 | 24.28100 | 39.74176 | 11822 ft | 342 kts | 217° |
| 2026-04-29 04:40 | 24.26325 | 39.72423 | 12488 ft | 346 kts | 224° |
| 2026-04-29 04:41 | 24.24507 | 39.70672 | 13127 ft | 350 kts | 219° |
| 2026-04-29 04:41 | 24.22512 | 39.69116 | 13776 ft | 353 kts | 213° |
| 2026-04-29 04:41 | 24.20389 | 39.67741 | 14422 ft | 356 kts | 209° |
| 2026-04-29 04:41 | 24.18939 | 39.66892 | 14835 ft | 359 kts | 207° |
| 2026-04-29 04:42 | 24.16705 | 39.65647 | 15453 ft | 362 kts | 207° |
| 2026-04-29 04:42 | 24.14429 | 39.64406 | 16063 ft | 365 kts | 206° |
| 2026-04-29 04:42 | 24.12145 | 39.63162 | 16655 ft | 369 kts | 207° |
| 2026-04-29 04:42 | 24.09836 | 39.61897 | 17231 ft | 372 kts | 207° |
| 2026-04-29 04:43 | 24.07516 | 39.60620 | 17803 ft | 375 kts | 207° |
| 2026-04-29 04:43 | 24.05170 | 39.59325 | 18366 ft | 379 kts | 207° |
| 2026-04-29 04:43 | 24.02808 | 39.58021 | 18926 ft | 382 kts | 207° |
| 2026-04-29 04:43 | 24.00425 | 39.56703 | 19480 ft | 385 kts | 207° |
| 2026-04-29 04:44 | 23.98022 | 39.55375 | 20036 ft | 388 kts | 207° |
| 2026-04-29 04:44 | 23.95633 | 39.54054 | 20569 ft | 392 kts | 207° |
| 2026-04-29 04:44 | 23.93193 | 39.52706 | 21099 ft | 395 kts | 207° |
| 2026-04-29 04:44 | 23.90726 | 39.51342 | 21635 ft | 398 kts | 207° |
| 2026-04-29 04:45 | 23.88248 | 39.49972 | 22154 ft | 401 kts | 207° |
| 2026-04-29 04:45 | 23.85744 | 39.48587 | 22677 ft | 405 kts | 207° |
| 2026-04-29 04:45 | 23.83225 | 39.47195 | 23189 ft | 408 kts | 207° |
| 2026-04-29 04:45 | 23.80682 | 39.45788 | 23692 ft | 411 kts | 207° |
| 2026-04-29 04:46 | 23.78224 | 39.44429 | 24174 ft | 414 kts | 207° |
| 2026-04-29 04:46 | 23.75630 | 39.43028 | 24655 ft | 417 kts | 204° |
| 2026-04-29 04:46 | 23.72898 | 39.41911 | 25135 ft | 420 kts | 197° |
| 2026-04-29 04:46 | 23.70087 | 39.40965 | 25602 ft | 424 kts | 197° |
| 2026-04-29 04:47 | 23.67263 | 39.40003 | 26069 ft | 427 kts | 197° |
| 2026-04-29 04:47 | 23.64460 | 39.39041 | 26515 ft | 430 kts | 198° |
| 2026-04-29 04:47 | 23.61599 | 39.38054 | 26963 ft | 433 kts | 198° |
| 2026-04-29 04:47 | 23.58718 | 39.37058 | 27395 ft | 436 kts | 198° |
| 2026-04-29 04:48 | 23.55818 | 39.36054 | 27817 ft | 439 kts | 198° |
| 2026-04-29 04:48 | 23.52895 | 39.35043 | 28225 ft | 441 kts | 198° |
| 2026-04-29 04:48 | 23.49958 | 39.34028 | 28620 ft | 444 kts | 198° |
| 2026-04-29 04:48 | 23.47003 | 39.33007 | 29005 ft | 447 kts | 198° |
| 2026-04-29 04:49 | 23.44030 | 39.31981 | 29376 ft | 450 kts | 198° |
| 2026-04-29 04:49 | 23.41039 | 39.30949 | 29748 ft | 452 kts | 198° |
| 2026-04-29 04:49 | 23.38023 | 39.29909 | 29962 ft | 455 kts | 198° |
| 2026-04-29 04:50 | 23.31873 | 39.27791 | 30000 ft | 470 kts | 198° |
| 2026-04-29 04:50 | 23.25653 | 39.25650 | 29999 ft | 469 kts | 198° |
| 2026-04-29 04:51 | 23.19437 | 39.23513 | 30001 ft | 469 kts | 198° |
| 2026-04-29 04:51 | 23.13217 | 39.21376 | 29999 ft | 469 kts | 198° |
| 2026-04-29 04:52 | 23.07085 | 39.19272 | 29999 ft | 469 kts | 198° |
| 2026-04-29 04:52 | 23.00855 | 39.17136 | 30000 ft | 469 kts | 198° |
| 2026-04-29 04:53 | 22.94675 | 39.15019 | 30001 ft | 469 kts | 198° |
| 2026-04-29 04:53 | 22.88451 | 39.12889 | 29999 ft | 469 kts | 198° |
| 2026-04-29 04:54 | 22.82218 | 39.10798 | 29998 ft | 469 kts | 195° |
| 2026-04-29 04:54 | 22.75775 | 39.09799 | 30001 ft | 469 kts | 182° |
| 2026-04-29 04:55 | 22.69249 | 39.09958 | 29999 ft | 469 kts | 178° |
| 2026-04-29 04:55 | 22.62719 | 39.10188 | 29998 ft | 469 kts | 178° |
| 2026-04-29 04:56 | 22.56313 | 39.10406 | 29814 ft | 449 kts | 178° |
| 2026-04-29 04:56 | 22.53234 | 39.10508 | 29698 ft | 436 kts | 178° |
| 2026-04-29 04:56 | 22.50248 | 39.10604 | 29548 ft | 421 kts | 179° |
| 2026-04-29 04:56 | 22.47368 | 39.10640 | 29429 ft | 407 kts | 180° |
| 2026-04-29 04:57 | 22.44577 | 39.10640 | 29175 ft | 397 kts | 180° |
| 2026-04-29 04:57 | 22.41823 | 39.10636 | 28675 ft | 394 kts | 180° |
| 2026-04-29 04:57 | 22.39357 | 39.10638 | 28218 ft | 392 kts | 180° |
| 2026-04-29 04:57 | 22.36642 | 39.10645 | 27717 ft | 389 kts | 180° |
| 2026-04-29 04:58 | 22.33943 | 39.10656 | 27224 ft | 385 kts | 180° |
| 2026-04-29 04:58 | 22.31269 | 39.10669 | 26713 ft | 382 kts | 180° |
| 2026-04-29 04:58 | 22.28616 | 39.10683 | 26206 ft | 379 kts | 180° |
| 2026-04-29 04:58 | 22.25986 | 39.10697 | 25685 ft | 376 kts | 180° |
| 2026-04-29 04:59 | 22.23383 | 39.10710 | 25177 ft | 373 kts | 180° |
| 2026-04-29 04:59 | 22.20793 | 39.10724 | 24532 ft | 373 kts | 180° |
| 2026-04-29 04:59 | 22.18175 | 39.10737 | 23628 ft | 379 kts | 180° |
| 2026-04-29 04:59 | 22.15507 | 39.10750 | 22629 ft | 388 kts | 180° |
| 2026-04-29 05:00 | 22.12784 | 39.10765 | 21632 ft | 394 kts | 180° |
| 2026-04-29 05:00 | 22.10032 | 39.10987 | 20622 ft | 399 kts | 172° |
| 2026-04-29 05:00 | 22.07313 | 39.11654 | 19627 ft | 403 kts | 163° |
| 2026-04-29 05:00 | 22.04672 | 39.12689 | 18625 ft | 404 kts | 159° |
| 2026-04-29 05:01 | 22.02071 | 39.13746 | 17629 ft | 405 kts | 160° |
| 2026-04-29 05:01 | 21.99424 | 39.14806 | 16525 ft | 407 kts | 160° |
| 2026-04-29 05:01 | 21.96763 | 39.15863 | 15397 ft | 408 kts | 160° |
| 2026-04-29 05:01 | 21.94103 | 39.16916 | 14396 ft | 405 kts | 160° |
| 2026-04-29 05:02 | 21.91486 | 39.17951 | 13422 ft | 396 kts | 160° |
| 2026-04-29 05:02 | 21.88941 | 39.18957 | 12307 ft | 383 kts | 160° |
| 2026-04-29 05:02 | 21.86484 | 39.19928 | 11610 ft | 364 kts | 160° |
| 2026-04-29 05:02 | 21.84204 | 39.20829 | 11312 ft | 335 kts | 160° |
| 2026-04-29 05:03 | 21.82103 | 39.21660 | 11063 ft | 309 kts | 160° |
| 2026-04-29 05:03 | 21.80161 | 39.22425 | 10754 ft | 287 kts | 160° |
| 2026-04-29 05:03 | 21.78311 | 39.23151 | 10143 ft | 283 kts | 160° |
| 2026-04-29 05:03 | 21.76441 | 39.23882 | 9229 ft | 291 kts | 160° |
| 2026-04-29 05:04 | 21.74482 | 39.24648 | 8048 ft | 308 kts | 160° |
| 2026-04-29 05:04 | 21.72457 | 39.25441 | 7409 ft | 305 kts | 160° |
| 2026-04-29 05:04 | 21.70514 | 39.26206 | 7133 ft | 288 kts | 160° |
| 2026-04-29 05:04 | 21.68699 | 39.26925 | 6959 ft | 268 kts | 160° |
| 2026-04-29 05:05 | 21.67009 | 39.27595 | 6786 ft | 249 kts | 160° |
| 2026-04-29 05:05 | 21.65425 | 39.28222 | 6555 ft | 238 kts | 160° |
| 2026-04-29 05:05 | 21.63883 | 39.28832 | 6151 ft | 236 kts | 160° |
| 2026-04-29 05:05 | 21.62347 | 39.29438 | 5733 ft | 235 kts | 160° |
| 2026-04-29 05:06 | 21.60814 | 39.30039 | 5339 ft | 233 kts | 160° |
| 2026-04-29 05:06 | 21.59296 | 39.30631 | 4939 ft | 232 kts | 160° |
| 2026-04-29 05:06 | 21.57803 | 39.31214 | 4563 ft | 230 kts | 160° |
| 2026-04-29 05:06 | 21.56301 | 39.31802 | 4171 ft | 229 kts | 160° |
| 2026-04-29 05:07 | 21.54805 | 39.32388 | 3803 ft | 228 kts | 160° |
| 2026-04-29 05:07 | 21.53318 | 39.32970 | 3441 ft | 227 kts | 160° |
| 2026-04-29 05:07 | 21.51849 | 39.33548 | 3169 ft | 221 kts | 160° |
| 2026-04-29 05:07 | 21.50414 | 39.34111 | 3099 ft | 222 kts | 160° |
| 2026-04-29 05:08 | 21.48962 | 39.34679 | 3088 ft | 221 kts | 160° |
| 2026-04-29 05:08 | 21.47520 | 39.35242 | 3087 ft | 221 kts | 160° |
| 2026-04-29 05:08 | 21.46075 | 39.35807 | 3089 ft | 221 kts | 161° |
| 2026-04-29 05:08 | 21.44633 | 39.36369 | 3090 ft | 221 kts | 160° |
| 2026-04-29 05:09 | 21.43188 | 39.36934 | 3091 ft | 221 kts | 160° |
| 2026-04-29 05:09 | 21.41742 | 39.37501 | 3087 ft | 221 kts | 160° |
| 2026-04-29 05:09 | 21.40299 | 39.38069 | 3087 ft | 221 kts | 160° |
| 2026-04-29 05:09 | 21.38858 | 39.38635 | 3092 ft | 221 kts | 160° |
| 2026-04-29 05:10 | 21.37412 | 39.39202 | 3086 ft | 221 kts | 160° |
| 2026-04-29 05:10 | 21.35922 | 39.39525 | 3095 ft | 220 kts | 183° |
| 2026-04-29 05:10 | 21.34482 | 39.39041 | 3091 ft | 220 kts | 213° |
| 2026-04-29 05:10 | 21.33479 | 39.37833 | 3091 ft | 219 kts | 244° |
| 2026-04-29 05:11 | 21.32975 | 39.36285 | 3092 ft | 220 kts | 255° |
| 2026-04-29 05:11 | 21.32613 | 39.34694 | 3088 ft | 220 kts | 256° |
| 2026-04-29 05:11 | 21.32225 | 39.33118 | 3087 ft | 215 kts | 254° |
| 2026-04-29 05:11 | 21.31972 | 39.31596 | 3090 ft | 199 kts | 272° |
| 2026-04-29 05:12 | 21.32365 | 39.30264 | 3085 ft | 185 kts | 303° |
| 2026-04-29 05:12 | 21.33280 | 39.29380 | 3096 ft | 171 kts | 332° |
| 2026-04-29 05:12 | 21.34361 | 39.28979 | 3082 ft | 163 kts | 343° |
| 2026-04-29 05:12 | 21.35466 | 39.28606 | 3085 ft | 163 kts | 341° |
| 2026-04-29 05:13 | 21.36540 | 39.28220 | 3096 ft | 166 kts | 341° |
| 2026-04-29 05:13 | 21.37613 | 39.27818 | 3091 ft | 162 kts | 339° |
| 2026-04-29 05:13 | 21.38685 | 39.27393 | 3088 ft | 163 kts | 339° |
| 2026-04-29 05:13 | 21.39746 | 39.26967 | 3094 ft | 166 kts | 339° |
| 2026-04-29 05:14 | 21.40813 | 39.26543 | 3089 ft | 162 kts | 339° |
| 2026-04-29 05:14 | 21.41888 | 39.26116 | 3085 ft | 167 kts | 339° |
| 2026-04-29 05:14 | 21.42962 | 39.25689 | 3022 ft | 162 kts | 339° |
| 2026-04-29 05:14 | 21.44014 | 39.25269 | 2796 ft | 162 kts | 339° |
| 2026-04-29 05:15 | 21.45070 | 39.24850 | 2564 ft | 162 kts | 339° |
| 2026-04-29 05:15 | 21.46126 | 39.24430 | 2349 ft | 161 kts | 339° |
| 2026-04-29 05:15 | 21.47153 | 39.24024 | 2192 ft | 157 kts | 339° |
| 2026-04-29 05:15 | 21.48213 | 39.23601 | 2182 ft | 161 kts | 339° |
| 2026-04-29 05:16 | 21.49261 | 39.23185 | 2192 ft | 162 kts | 339° |
| 2026-04-29 05:16 | 21.50316 | 39.22767 | 2189 ft | 160 kts | 339° |
| 2026-04-29 05:16 | 21.51356 | 39.22353 | 2128 ft | 158 kts | 339° |
| 2026-04-29 05:16 | 21.52382 | 39.21945 | 1869 ft | 157 kts | 339° |
| 2026-04-29 05:17 | 21.53395 | 39.21543 | 1821 ft | 150 kts | 339° |
| 2026-04-29 05:17 | 21.54340 | 39.21168 | 1813 ft | 149 kts | 338° |
| 2026-04-29 05:17 | 21.55301 | 39.20786 | 1789 ft | 144 kts | 339° |
| 2026-04-29 05:17 | 21.56259 | 39.20405 | 1788 ft | 147 kts | 339° |
| 2026-04-29 05:18 | 21.57208 | 39.20029 | 1791 ft | 146 kts | 339° |
| 2026-04-29 05:18 | 21.58169 | 39.19647 | 1691 ft | 146 kts | 339° |
| 2026-04-29 05:18 | 21.59113 | 39.19273 | 1504 ft | 149 kts | 339° |
| 2026-04-29 05:18 | 21.60068 | 39.18893 | 1305 ft | 142 kts | 339° |
| 2026-04-29 05:19 | 21.61025 | 39.18514 | 1111 ft | 146 kts | 339° |
| 2026-04-29 05:19 | 21.61938 | 39.18151 | 940 ft | 146 kts | 339° |
| 2026-04-29 05:19 | 21.62734 | 39.17836 | 764 ft | 140 kts | 339° |
| 2026-04-29 05:19 | 21.63662 | 39.17467 | 589 ft | 149 kts | 338° |
| 2026-04-29 05:20 | 21.64608 | 39.17092 | 384 ft | 142 kts | 339° |
| 2026-04-29 05:20 | 21.65555 | 39.16715 | 178 ft | 143 kts | 339° |
| 2026-04-29 05:20 | 21.66481 | 39.16348 | 48 ft | 147 kts | 339° |
| 2026-04-29 05:20 | 21.67266 | 39.16033 | 40 ft | 83 kts | 340° |
| 2026-04-29 05:21 | 21.67748 | 39.15846 | 40 ft | 69 kts | 339° |
| 2026-04-29 05:21 | 21.68088 | 39.15733 | 39 ft | 30 kts | 353° |
| 2026-04-29 05:21 | 21.68293 | 39.15750 | 37 ft | 25 kts | 12° |
| 2026-04-29 05:21 | 21.68311 | 39.15754 | 37 ft | 3 kts | 12° |
| 2026-04-29 05:23 | 21.68312 | 39.15754 | 37 ft | 0 kts | 12° |
| 2026-04-29 05:24 | 21.68328 | 39.15758 | 37 ft | 6 kts | 12° |
| 2026-04-29 05:24 | 21.68391 | 39.15770 | 37 ft | 12 kts | 7° |
| 2026-04-29 05:24 | 21.68482 | 39.15783 | 36 ft | 13 kts | 39° |
| 2026-04-29 05:24 | 21.68470 | 39.15856 | 38 ft | 12 kts | 128° |
| 2026-04-29 05:25 | 21.68381 | 39.15899 | 38 ft | 17 kts | 159° |
| 2026-04-29 05:25 | 21.68256 | 39.15948 | 39 ft | 22 kts | 160° |
| 2026-04-29 05:25 | 21.68100 | 39.16010 | 39 ft | 26 kts | 160° |
| 2026-04-29 05:25 | 21.67982 | 39.16057 | 39 ft | 29 kts | 160° |
| 2026-04-29 05:26 | 21.67715 | 39.16162 | 40 ft | 31 kts | 160° |
| 2026-04-29 05:26 | 21.67612 | 39.16202 | 39 ft | 31 kts | 160° |
| 2026-04-29 05:26 | 21.67410 | 39.16281 | 40 ft | 31 kts | 160° |
| 2026-04-29 05:26 | 21.67209 | 39.16359 | 41 ft | 31 kts | 160° |
| 2026-04-29 05:27 | 21.67011 | 39.16437 | 42 ft | 25 kts | 160° |
| 2026-04-29 05:27 | 21.66892 | 39.16530 | 43 ft | 10 kts | 89° |
| 2026-04-29 05:27 | 21.66901 | 39.16613 | 42 ft | 12 kts | 81° |
| 2026-04-29 05:28 | 21.66878 | 39.16697 | 44 ft | 12 kts | 108° |
| 2026-04-29 05:28 | 21.66874 | 39.16709 | 44 ft | 0 kts | 108° |
| 2026-04-29 05:28 | 21.66873 | 39.16710 | 44 ft | 1 kts | 108° |
| 2026-04-29 05:29 | 21.66865 | 39.16736 | 45 ft | 2 kts | 109° |
| 2026-04-29 05:29 | 21.66860 | 39.16752 | 45 ft | 0 kts | 109° |
| 2026-04-29 05:29 | 21.66862 | 39.16756 | 45 ft | 1 kts | 93° |
| 2026-04-29 05:29 | 21.66875 | 39.16764 | 45 ft | 2 kts | 37° |
| 2026-04-29 05:30 | 21.66903 | 39.16763 | 45 ft | 7 kts | 4° |
| 2026-04-29 05:30 | 21.66944 | 39.16763 | 46 ft | 0 kts | 0° |
| 2026-04-29 05:33 | 21.66948 | 39.16764 | 46 ft | 3 kts | 1° |
| 2026-04-29 05:33 | 21.66958 | 39.16764 | 46 ft | 1 kts | 1° |
| 2026-04-29 05:33 | 21.66963 | 39.16764 | 46 ft | 0 kts | 1° |